Relevés horaires Beauvechain (Belgique)


Relevés horaires à Beauvechain - Lundi 15 Avr. 2019
Heure UTC1 Température [°C] Vent [km/h] Hum. [%] Pres.4 [hPa] Visi. [Km] Nébu. [octa] Préc.5 [mm] Cond.
2m. Res. Ros. Dir.2 Vit. Moy. Raf.3
23:00 9.5 9.5 3.3 E 3.7 -- 7.4 65 1016.8(-0.5/3h) 17 -- -- --
22:00 9.7 9.7 3.1 E 3.7 -- 5.6 63 1017.1(-0.1/3h) 18 -- -- --
21:00 10.8 10.8 3.5 NNO 3.7 -- 11.1 61 1017.2(0.2/3h) 19 -- -- --
20:00 12.3 12.2 3.6 E 5.6 -- 9.3 55 1017.2(0.0/3h) 20 -- -- --
19:00 13.3 13.3 3.7 E 5.6 -- 11.1 52 1017(-0.8/3h) 20 -- -- --
18:00 14.6 14.5 4.2 ENE 7.4 -- 18.5 50 1016.7(-1.8/3h) 20 -- -- --
17:00 15.8 15.6 4.8 ENE 9.3 -- 18.5 48 1017(-2.5/3h) 19 -- -- --
16:00 15.6 15.4 4.9 ENE 9.3 -- 14.8 49 1017.7(-3.1/3h) 19 -- -- --
15:00 15.3 15.1 5.0 ENE 9.3 -- 14.8 50 1018.5(-3.6/3h) 15 -- -- --
14:00 13.6 13 3.1 E 9.3 -- 14.8 49 1019.7(-3.6/3h) 17 -- -- --
13:00 13.0 12.6 2.5 E 7.4 -- 13.0 49 1021.1(-3.0/3h) 20 -- -- --
12:00 11.3 11.1 1.1 E 5.6 -- 14.8 49 1022.5(-2.0/3h) 17 -- -- --
11:00 10.0 9.1 1.5 E 7.4 -- 11.1 55 1023.6(-1.6/3h) 17 -- -- --
10:00 8.3 7.1 1.4 ESE 7.4 -- 14.8 62 1024.5(-1.1/3h) 20 -- -- --
09:00 7.3 6 1.0 E 7.4 -- 13.0 64 1024.7(-0.7/3h) 17 -- -- --
08:00 5.4 4.3 1.0 E 5.6 -- 9.3 73 1025.5(-0.2/3h) 17 -- -- --
07:00 3.2 3.2 0.5 E 3.7 -- 7.4 82 1025.9(-0.2/3h) 10 -- -- --
06:00 1.8 1.8 -- E 3.7 -- 7.4 -- 1025.9(-0.6/3h) 9 -- -- --
05:00 1.2 1.2 -1.0 E 3.7 -- 3.7 85 1026(-0.4/3h) 10 -- -- --
04:00 0.8 0.8 -1.7 NNO 1.9 -- 3.7 83 1026.2(-0.4/3h) 10 -- -- --
03:00 1.5 1.5 -1.7 NNO 1.9 -- 7.4 79 1026.5(-0.5/3h) 13 -- -- --
02:00 2.2 2.2 -1.5 NNO 1.9 -- 5.6 76 1026.4(-0.8/3h) 13 -- -- --
01:00 2.7 2.7 -1.7 ENE 3.7 -- 7.4 73 1026.7(-0.1/3h) 14 -- -- --
00:00 3.0 1.6 -1.8 ENE 5.6 -- 9.3 71 1027(0.7/3h) 14 -- -- --

1 Coordinated Universal Time. Actuellement il est 15:00 locale et 14:00 UTC.

2 Le vent souffle depuis la direction indiquée vers la direction oposée.

3 Les rafales max. sont disponible 40 min après l'heure du relevé.

4 Pour les stations d'altitude (plus de 600m) le géopotentiel du niveau le plus proche de la pression obligatoire est indiqué.

5 Les stations disposant d'un diffuseur peuvent indiquer "trace". Cela signifie que des précipitations ont touchés le sol mais que la quantité est inférieure à 0.1 mm.

Récapitulatif de la journée
Température [°C] Vent [km/h] Ensoleillement4 [h] Precipitations totale5 [mm] Pression [Hpa]
Min1 Max.2 Moy.3 Max. Min Max.
0.4 15.8 0 18.5 0 h 0 min 0 1016.7 1027.0

1 Température minimale relevée entre 18:00 UTC la veille et 18:00 UTC le jour donné.

2 Température maximale relevée entre 06:00 UTC le jour donné et 06:00 UTC le lendemain.

3 Vent moyen de la journée basé sur les relevés horaires.

4 Ensoleillement en heures relevé entre 06:00 UTC la veille et 06:00 UTC le jour donné.

5 Précipitations totales tombées entre 06:00 UTC la jour donné et 06:00 UTC le lendemain.

Graphiques horaires